This is the latest recevied weather packets stored in our database for station/object WV8MT. If no packets are shown the sender has not sent any weather packets the latest 10 day(s).
| Time | Temp. | Humidity | Pressure | Rain* | Wind** | Luminosity | Snow |
|---|---|---|---|---|---|---|---|
| 1777972820 | 9.44° C | 97% | 1017.3 hPa | 0 mm | - | - | - |
| 1777971030 | 7.22° C | 99% | 1017.3 hPa | 0 mm | - | - | - |
| 1777970421 | 7.22° C | 99% | 1017.3 hPa | 0 mm | - | - | - |
| 1777968649 | 7.22° C | 99% | 1017 hPa | 0 mm | - | - | - |
| 1777963229 | 7.78° C | 99% | 1016.6 hPa | 0 mm | - | - | - |
| 1777961422 | 7.78° C | 99% | 1016.4 hPa | 0 mm | - | - | - |
| 1777959618 | 8.89° C | 99% | 1016.6 hPa | 0 mm | - | - | - |
| 1777956618 | 10° C | 96% | 1016.4 hPa | 0 mm | - | - | - |
| 1777953046 | 9.44° C | 97% | 1016.2 hPa | 0 mm | - | - | - |
| 1777950643 | 10° C | 96% | 1016.4 hPa | 0 mm | - | - | - |
| 1777947029 | 12.22° C | 87% | 1016.7 hPa | 0 mm | - | - | - |
| 1777945223 | 13.33° C | 83% | 1016.5 hPa | 0 mm | - | - | - |
| 1777942844 | 14.44° C | 78% | 1016 hPa | 0 mm | - | - | - |
| 1777939228 | 17.78° C | 67% | 1015.6 hPa | 0 mm | - | - | - |
| 1777936845 | 19.44° C | 61% | 1015.2 hPa | 0 mm | - | - | - |
| 1777935019 | 20.56° C | 54% | 1015.1 hPa | 0 mm | - | - | - |
| 1777930233 | - | - | 1014.7 hPa | 0 mm | - | - | - |
| 1777924821 | 23.33° C | 46% | 1014.9 hPa | 0 mm | - | - | - |
| 1777923027 | 22.78° C | 47% | 1015.3 hPa | 0 mm | - | - | - |
| 1777920626 | 22.22° C | 49% | 1016 hPa | 0 mm | - | - | - |
| 1777918818 | 21.67° C | 49% | 1015.9 hPa | 0 mm | - | - | - |
| 1777916436 | 20° C | 50% | 1016.4 hPa | 0 mm | - | - | - |
| 1777911016 | 20.56° C | 47% | 1017.4 hPa | 0 mm | - | - | - |
| 1777910420 | 20.56° C | 47% | 1017.8 hPa | 0 mm | - | - | - |
| 1777909230 | 20.56° C | 46% | 1017.7 hPa | 0 mm | - | - | - |
* Rain latest hour (hover to see other rain measurements)
** Current wind speed in m/s (hover to see current wind gust speed)